Time;durP1;ratioP1;P1;durP2;ratioP2;P2;SDS_P1;SDS_P2;PMS_P1;PMS_P2;Temp;Humidity;BMP_temperature;BMP_pressure;BME280_temperature;BME280_humidity;BME280_pressure;Samples;Min_cycle;Max_cycle;Signal;HPM_P1;HPM_P2
2022/09/08 00:01:33;;;;;;;;;;;16.80;99.90;;;;;;4972882;28;20016;-82
2022/09/08 00:04:01;;;;;;;;;;;16.80;99.90;;;;;;4973327;28;19936;-82
2022/09/08 00:06:27;;;;;;;;;;;16.80;99.90;;;;;;4972499;28;19965;-80
2022/09/08 00:08:55;;;;;;;;;;;16.80;99.90;;;;;;4940538;28;20377;-80
2022/09/08 00:11:23;;;;;;;;;;;16.80;99.90;;;;;;4939073;28;20369;-83
2022/09/08 00:13:50;;;;;;;;;;;16.80;99.90;;;;;;4971396;28;19922;-80
2022/09/08 00:16:19;;;;;;;;;;;16.80;99.90;;;;;;4970575;28;19925;-81
2022/09/08 00:18:45;;;;;;;;;;;16.90;99.90;;;;;;4952257;28;19932;-80
2022/09/08 00:21:10;;;;;;;;;;;16.80;99.90;;;;;;4984183;28;19932;-82
2022/09/08 00:23:36;;;;;;;;;;;16.90;99.90;;;;;;4973540;28;20392;-81
2022/09/08 00:26:03;;;;;;;;;;;16.90;99.90;;;;;;4955317;28;19926;-82
2022/09/08 00:28:30;;;;;;;;;;;16.90;99.90;;;;;;4954433;28;19929;-83
2022/09/08 00:30:58;;;;;;;;;;;16.90;99.90;;;;;;4954092;28;19930;-82
2022/09/08 00:33:24;;;;;;;;;;;16.90;99.90;;;;;;4971148;28;19948;-81
2022/09/08 00:35:51;;;;;;;;;;;16.90;99.90;;;;;;4975923;28;20369;-80
2022/09/08 00:38:19;;;;;;;;;;;16.90;99.90;;;;;;4954932;28;19934;-79
2022/09/08 00:40:45;;;;;;;;;;;16.90;99.90;;;;;;4971947;28;19972;-81
2022/09/08 00:43:30;;;;;;;;;;;16.90;99.90;;;;;;4953176;28;19926;-85
2022/09/08 00:45:58;;;;;;;;;;;16.80;99.90;;;;;;4987504;28;19965;-82
2022/09/08 00:48:25;;;;;;;;;;;16.80;99.90;;;;;;4955534;28;19926;-78
2022/09/08 00:50:51;;;;;;;;;;;16.80;99.90;;;;;;4954762;28;19941;-83
2022/09/08 00:53:18;;;;;;;;;;;16.70;99.90;;;;;;4971453;28;19930;-81
2022/09/08 00:55:44;;;;;;;;;;;16.70;99.90;;;;;;4956116;28;19972;-81
2022/09/08 00:58:10;;;;;;;;;;;16.70;99.90;;;;;;4955176;28;19952;-81
2022/09/08 01:00:37;;;;;;;;;;;16.60;99.90;;;;;;4956638;28;19953;-80
2022/09/08 01:03:05;;;;;;;;;;;16.60;99.90;;;;;;4976398;28;19926;-82
2022/09/08 01:05:39;;;;;;;;;;;16.50;99.90;;;;;;4958687;28;19972;-80
2022/09/08 01:14:09;;;;;;;;;;;16.40;99.90;;;;;;4898272;29;19927;-81
2022/09/08 01:16:46;;;;;;;;;;;16.30;99.90;;;;;;4981152;28;19926;-81
2022/09/08 01:19:17;;;;;;;;;;;16.30;99.90;;;;;;4974792;28;19926;-80
2022/09/08 01:21:58;;;;;;;;;;;16.20;99.90;;;;;;4957681;28;19926;-85
2022/09/08 01:24:27;;;;;;;;;;;16.20;99.90;;;;;;4989347;28;19936;-80
2022/09/08 01:26:59;;;;;;;;;;;16.20;99.90;;;;;;4972280;28;19934;-80
2022/09/08 01:29:25;;;;;;;;;;;16.20;99.90;;;;;;4969211;28;19929;-80
2022/09/08 01:31:55;;;;;;;;;;;16.20;99.90;;;;;;4992974;28;19988;-80
2022/09/08 01:34:21;;;;;;;;;;;16.20;99.90;;;;;;4950346;28;20328;-81
2022/09/08 01:36:47;;;;;;;;;;;16.20;99.90;;;;;;4943708;28;19984;-83
2022/09/08 01:39:13;;;;;;;;;;;16.20;99.90;;;;;;4955483;28;19930;-80
2022/09/08 01:41:39;;;;;;;;;;;16.20;99.90;;;;;;4955364;28;20021;-81
2022/09/08 01:44:04;;;;;;;;;;;16.20;99.90;;;;;;4987067;28;19930;-81
2022/09/08 01:46:30;;;;;;;;;;;16.20;99.90;;;;;;4954066;28;19941;-82
2022/09/08 01:48:58;;;;;;;;;;;16.20;99.90;;;;;;4969833;28;20192;-78
2022/09/08 01:51:25;;;;;;;;;;;16.20;99.90;;;;;;4954767;28;19930;-82
2022/09/08 01:53:51;;;;;;;;;;;16.30;99.90;;;;;;4939091;28;20298;-81
2022/09/08 01:56:17;;;;;;;;;;;16.30;99.90;;;;;;4954235;28;20017;-79
2022/09/08 01:58:43;;;;;;;;;;;16.30;99.90;;;;;;4985480;28;20012;-82
2022/09/08 02:01:09;;;;;;;;;;;16.30;99.90;;;;;;4957921;28;19973;-80
2022/09/08 02:03:35;;;;;;;;;;;16.30;99.90;;;;;;4986671;28;19973;-83
2022/09/08 02:08:55;;;;;;;;;;;16.30;99.90;;;;;;5048397;23;19937;-81
2022/09/08 02:11:21;;;;;;;;;;;16.30;99.90;;;;;;5004227;28;20026;-80
2022/09/08 02:14:05;;;;;;;;;;;16.30;99.90;;;;;;4998742;28;20275;-79
2022/09/08 02:16:31;;;;;;;;;;;16.30;99.90;;;;;;5009409;28;19944;-84
2022/09/08 02:18:58;;;;;;;;;;;16.30;99.90;;;;;;5024646;28;19935;-83
2022/09/08 02:21:24;;;;;;;;;;;16.30;99.90;;;;;;5014380;28;19929;-80
2022/09/08 02:23:51;;;;;;;;;;;16.30;99.90;;;;;;5000906;28;20020;-79
2022/09/08 02:26:18;;;;;;;;;;;16.30;99.90;;;;;;5013049;28;20391;-79
2022/09/08 02:28:44;;;;;;;;;;;16.30;99.90;;;;;;5053869;28;20331;-81
2022/09/08 02:31:11;;;;;;;;;;;16.30;99.90;;;;;;4995378;28;19965;-82
2022/09/08 02:34:04;;;;;;;;;;;16.30;99.90;;;;;;4987659;28;19929;-80
2022/09/08 02:36:55;;;;;;;;;;;16.30;99.90;;;;;;5043186;28;19928;-80
2022/09/08 02:39:40;;;;;;;;;;;16.30;99.90;;;;;;5011170;28;19933;-82
2022/09/08 02:42:06;;;;;;;;;;;16.30;99.90;;;;;;5043566;28;19925;-80
2022/09/08 02:44:32;;;;;;;;;;;16.40;99.90;;;;;;5013668;28;20013;-81
2022/09/08 02:50:22;;;;;;;;;;;16.40;99.90;;;;;;5028346;28;19932;-80
2022/09/08 02:52:47;;;;;;;;;;;16.40;99.90;;;;;;5001081;28;19926;-84
2022/09/08 02:55:26;;;;;;;;;;;16.40;99.90;;;;;;4996393;28;19935;-81
2022/09/08 02:57:52;;;;;;;;;;;16.40;99.90;;;;;;5052517;28;19925;-80
2022/09/08 03:00:18;;;;;;;;;;;16.40;99.90;;;;;;4998792;28;19931;-84
2022/09/08 03:02:46;;;;;;;;;;;16.50;99.90;;;;;;4997740;28;19933;-84
2022/09/08 03:05:12;;;;;;;;;;;16.50;99.90;;;;;;5025121;28;19961;-81
2022/09/08 03:07:38;;;;;;;;;;;16.50;99.90;;;;;;5028713;28;19925;-83
2022/09/08 03:10:05;;;;;;;;;;;16.50;99.90;;;;;;5024439;28;19925;-83
2022/09/08 03:12:32;;;;;;;;;;;16.50;99.90;;;;;;5008964;28;20363;-83
2022/09/08 03:14:58;;;;;;;;;;;16.50;99.90;;;;;;5023344;28;19925;-82
2022/09/08 03:17:24;;;;;;;;;;;16.60;99.90;;;;;;5012632;28;20322;-83
2022/09/08 03:19:54;;;;;;;;;;;16.60;99.90;;;;;;4993149;28;20031;-83
2022/09/08 03:22:20;;;;;;;;;;;16.60;99.90;;;;;;4999430;28;19968;-79
2022/09/08 03:24:46;;;;;;;;;;;16.60;99.90;;;;;;4997069;28;19972;-80
2022/09/08 03:27:12;;;;;;;;;;;16.70;99.90;;;;;;5022925;28;19926;-84
2022/09/08 03:29:42;;;;;;;;;;;16.70;99.90;;;;;;5003675;28;19921;-80
2022/09/08 03:32:32;;;;;;;;;;;16.70;99.90;;;;;;5005142;28;19929;-79
2022/09/08 03:35:05;;;;;;;;;;;16.70;99.90;;;;;;5026639;28;19947;-79
2022/09/08 03:37:31;;;;;;;;;;;16.70;99.90;;;;;;5047723;28;19933;-81
2022/09/08 03:39:56;;;;;;;;;;;16.70;99.90;;;;;;5031258;28;20472;-79
2022/09/08 03:42:22;;;;;;;;;;;16.70;99.90;;;;;;5002586;28;19929;-81
2022/09/08 03:47:51;;;;;;;;;;;16.70;99.90;;;;;;5034961;28;19928;-82
2022/09/08 03:50:19;;;;;;;;;;;16.80;99.90;;;;;;5025027;28;19928;-83
2022/09/08 03:52:45;;;;;;;;;;;16.80;99.90;;;;;;5011919;28;20652;-82
2022/09/08 03:55:11;;;;;;;;;;;16.80;99.90;;;;;;5001519;28;19925;-84
2022/09/08 03:57:38;;;;;;;;;;;16.80;99.90;;;;;;5016855;28;20625;-81
2022/09/08 04:00:05;;;;;;;;;;;16.80;99.90;;;;;;5043387;28;20280;-80
2022/09/08 04:02:31;;;;;;;;;;;16.80;99.90;;;;;;5015807;28;19934;-89
2022/09/08 04:04:57;;;;;;;;;;;16.80;99.90;;;;;;5004496;28;20002;-83
2022/09/08 04:07:26;;;;;;;;;;;16.90;99.90;;;;;;4991768;28;20566;-81
2022/09/08 04:09:52;;;;;;;;;;;16.80;99.90;;;;;;4997179;28;20423;-83
2022/09/08 04:12:18;;;;;;;;;;;16.90;99.90;;;;;;5028434;28;19930;-78
2022/09/08 04:14:46;;;;;;;;;;;16.90;99.90;;;;;;5013630;28;19925;-83
2022/09/08 04:17:11;;;;;;;;;;;16.90;99.90;;;;;;5050410;28;19925;-78
2022/09/08 04:19:37;;;;;;;;;;;16.90;99.90;;;;;;4993161;28;20361;-79
2022/09/08 04:22:03;;;;;;;;;;;16.90;99.90;;;;;;5030633;28;20016;-81
2022/09/08 04:24:29;;;;;;;;;;;16.90;99.90;;;;;;5029218;28;20269;-80
2022/09/08 04:26:55;;;;;;;;;;;16.90;99.90;;;;;;5004339;28;19929;-82
2022/09/08 04:29:21;;;;;;;;;;;17.00;99.90;;;;;;5050421;28;19983;-80
2022/09/08 04:31:47;;;;;;;;;;;17.00;99.90;;;;;;5019295;28;19925;-80
2022/09/08 04:34:14;;;;;;;;;;;17.00;99.90;;;;;;5039662;28;19925;-88
2022/09/08 04:36:40;;;;;;;;;;;17.00;99.90;;;;;;5019703;28;19929;-88
2022/09/08 04:39:07;;;;;;;;;;;17.00;99.90;;;;;;5003556;28;20440;-83
2022/09/08 04:41:33;;;;;;;;;;;17.00;99.90;;;;;;5013239;28;19925;-79
2022/09/08 04:44:03;;;;;;;;;;;17.10;99.90;;;;;;4996440;28;20355;-80
2022/09/08 04:46:30;;;;;;;;;;;17.10;99.90;;;;;;4997563;28;20032;-83
2022/09/08 04:48:56;;;;;;;;;;;17.00;99.90;;;;;;5053231;28;20383;-79
2022/09/08 04:51:24;;;;;;;;;;;17.00;99.90;;;;;;5001586;28;19926;-82
2022/09/08 04:53:53;;;;;;;;;;;17.00;99.90;;;;;;5009426;28;19929;-81
2022/09/08 04:56:20;;;;;;;;;;;17.00;99.90;;;;;;4998584;28;19925;-83
2022/09/08 04:58:46;;;;;;;;;;;17.00;99.90;;;;;;5003642;28;19961;-83
2022/09/08 05:01:18;;;;;;;;;;;17.00;99.90;;;;;;4997668;28;19930;-80
2022/09/08 05:03:43;;;;;;;;;;;17.00;99.90;;;;;;5037498;28;19992;-80
2022/09/08 05:06:11;;;;;;;;;;;17.00;99.90;;;;;;5018319;28;19985;-80
2022/09/08 05:08:36;;;;;;;;;;;17.00;99.90;;;;;;4996723;28;19979;-79
2022/09/08 05:11:02;;;;;;;;;;;17.00;99.90;;;;;;4988853;28;19961;-80
2022/09/08 05:13:29;;;;;;;;;;;17.00;99.90;;;;;;4992452;28;19976;-80
2022/09/08 05:16:06;;;;;;;;;;;17.00;99.90;;;;;;5005902;28;19928;-82
2022/09/08 05:18:32;;;;;;;;;;;17.00;99.90;;;;;;4990965;28;19983;-82
2022/09/08 05:20:58;;;;;;;;;;;16.90;99.90;;;;;;4985030;28;19933;-83
2022/09/08 05:23:24;;;;;;;;;;;17.00;99.90;;;;;;5007468;28;19976;-82
2022/09/08 05:25:55;;;;;;;;;;;17.00;99.90;;;;;;4998944;28;19925;-83
2022/09/08 05:28:23;;;;;;;;;;;17.00;99.90;;;;;;4994615;28;19932;-82
2022/09/08 05:30:49;;;;;;;;;;;17.00;99.90;;;;;;4988166;28;19934;-80
2022/09/08 05:33:15;;;;;;;;;;;17.10;99.90;;;;;;5006519;28;19992;-82
2022/09/08 05:35:41;;;;;;;;;;;17.10;99.90;;;;;;4993825;28;20009;-88
2022/09/08 05:38:11;;;;;;;;;;;17.10;99.90;;;;;;5000478;28;20352;-92
2022/09/08 05:40:38;;;;;;;;;;;17.20;99.90;;;;;;4996155;28;20408;-83
2022/09/08 05:43:04;;;;;;;;;;;17.20;99.90;;;;;;4998269;28;20515;-86
2022/09/08 05:45:30;;;;;;;;;;;17.20;99.90;;;;;;4998426;28;20028;-82
2022/09/08 05:47:57;;;;;;;;;;;17.20;99.90;;;;;;4979765;28;19980;-91
2022/09/08 05:53:38;;;;;;;;;;;17.30;99.90;;;;;;5009855;28;19944;-85
2022/09/08 05:56:06;;;;;;;;;;;17.30;99.90;;;;;;4984516;28;19925;-88
2022/09/08 05:58:32;;;;;;;;;;;17.30;99.90;;;;;;5001743;28;19975;-81
2022/09/08 06:01:04;;;;;;;;;;;17.30;99.90;;;;;;5010361;28;19929;-93
2022/09/08 06:03:30;;;;;;;;;;;17.40;99.90;;;;;;5007734;28;19937;-86
2022/09/08 06:06:01;;;;;;;;;;;17.30;99.90;;;;;;5006038;28;20113;-83
2022/09/08 06:08:34;;;;;;;;;;;17.40;99.90;;;;;;4991542;28;19926;-81
2022/09/08 06:11:00;;;;;;;;;;;17.40;99.90;;;;;;5006503;28;20537;-87
2022/09/08 06:13:26;;;;;;;;;;;17.40;99.90;;;;;;5048863;28;19926;-83
2022/09/08 06:15:59;;;;;;;;;;;17.40;99.90;;;;;;5007760;28;20019;-91
2022/09/08 06:18:26;;;;;;;;;;;17.30;99.90;;;;;;5026109;28;19925;-82
2022/09/08 06:20:52;;;;;;;;;;;17.30;99.90;;;;;;5028239;28;19933;-86
2022/09/08 06:23:18;;;;;;;;;;;17.40;99.90;;;;;;5016149;28;20486;-83
2022/09/08 06:25:44;;;;;;;;;;;17.30;99.90;;;;;;5005712;28;19933;-82
2022/09/08 06:28:25;;;;;;;;;;;17.40;99.90;;;;;;4992686;28;19926;-81
2022/09/08 06:30:53;;;;;;;;;;;17.30;99.90;;;;;;5003457;28;19964;-81
2022/09/08 06:33:31;;;;;;;;;;;17.30;99.90;;;;;;5031456;28;19925;-82
2022/09/08 06:36:01;;;;;;;;;;;17.30;99.90;;;;;;5016773;28;19929;-82
2022/09/08 06:38:57;;;;;;;;;;;17.40;99.90;;;;;;4994587;28;20079;-82
2022/09/08 06:41:30;;;;;;;;;;;17.30;99.90;;;;;;4997204;28;19925;-81
2022/09/08 06:44:02;;;;;;;;;;;17.30;99.90;;;;;;5020074;28;19929;-80
2022/09/08 06:46:31;;;;;;;;;;;17.30;99.90;;;;;;5012412;28;19977;-81
2022/09/08 06:48:58;;;;;;;;;;;17.30;99.90;;;;;;5002454;28;20038;-81
2022/09/08 06:51:24;;;;;;;;;;;17.30;99.90;;;;;;4996798;28;19933;-80
2022/09/08 06:54:08;;;;;;;;;;;17.30;99.90;;;;;;5030510;28;19937;-80
2022/09/08 06:56:37;;;;;;;;;;;17.30;99.90;;;;;;5002874;28;19925;-82
2022/09/08 06:59:06;;;;;;;;;;;17.30;99.90;;;;;;5030982;28;20012;-80
2022/09/08 07:01:42;;;;;;;;;;;17.30;99.90;;;;;;4998949;28;19933;-81
2022/09/08 07:04:17;;;;;;;;;;;17.40;99.90;;;;;;4998750;28;20274;-82
2022/09/08 07:07:04;;;;;;;;;;;17.40;99.90;;;;;;5042515;28;20060;-84
2022/09/08 07:09:44;;;;;;;;;;;17.40;99.90;;;;;;4993067;28;19941;-85
2022/09/08 07:12:29;;;;;;;;;;;17.30;99.90;;;;;;5016172;28;19925;-82
2022/09/08 07:15:18;;;;;;;;;;;17.40;99.90;;;;;;5020704;28;19951;-91
2022/09/08 07:17:47;;;;;;;;;;;17.40;99.90;;;;;;4999267;28;19930;-88
2022/09/08 07:20:14;;;;;;;;;;;17.40;99.90;;;;;;5003547;28;19952;-89
2022/09/08 07:22:48;;;;;;;;;;;17.30;99.90;;;;;;4999502;28;19932;-85
2022/09/08 07:25:17;;;;;;;;;;;17.30;99.90;;;;;;5030823;28;20399;-78
2022/09/08 07:27:44;;;;;;;;;;;17.30;99.90;;;;;;5012621;28;19925;-79
2022/09/08 07:30:15;;;;;;;;;;;17.30;99.90;;;;;;5035528;28;19925;-79
2022/09/08 07:32:41;;;;;;;;;;;17.30;99.90;;;;;;5050783;28;19937;-77
2022/09/08 07:35:26;;;;;;;;;;;17.30;99.90;;;;;;5030051;28;19933;-79
2022/09/08 07:37:54;;;;;;;;;;;17.30;99.90;;;;;;5015456;28;19988;-77
2022/09/08 07:40:21;;;;;;;;;;;17.20;99.90;;;;;;5027923;28;19933;-78
2022/09/08 07:42:57;;;;;;;;;;;17.20;99.90;;;;;;5013840;28;19976;-80
2022/09/08 07:45:28;;;;;;;;;;;17.20;99.90;;;;;;5009531;28;20458;-77
2022/09/08 07:48:14;;;;;;;;;;;17.20;99.90;;;;;;5016139;28;20012;-77
2022/09/08 07:50:56;;;;;;;;;;;17.20;99.90;;;;;;5003402;28;20371;-80
2022/09/08 07:53:44;;;;;;;;;;;17.20;99.90;;;;;;5025972;28;20284;-80
2022/09/08 07:56:18;;;;;;;;;;;17.20;99.90;;;;;;5048117;28;19925;-82
2022/09/08 07:58:47;;;;;;;;;;;17.20;99.90;;;;;;4999389;28;19930;-80
2022/09/08 08:01:36;;;;;;;;;;;17.20;99.90;;;;;;5020675;28;19968;-80
2022/09/08 08:04:25;;;;;;;;;;;17.20;99.90;;;;;;5014513;28;19925;-80
2022/09/08 08:06:52;;;;;;;;;;;17.20;99.90;;;;;;5025964;28;19925;-81
2022/09/08 08:09:35;;;;;;;;;;;17.20;99.90;;;;;;5010102;28;19930;-83
2022/09/08 08:12:04;;;;;;;;;;;17.10;99.90;;;;;;5014410;28;19932;-78
2022/09/08 08:14:49;;;;;;;;;;;17.10;99.90;;;;;;5014338;28;19932;-81
2022/09/08 08:17:27;;;;;;;;;;;17.10;99.90;;;;;;5026196;28;20557;-81
2022/09/08 08:20:00;;;;;;;;;;;17.10;99.90;;;;;;5012683;28;19925;-79
2022/09/08 08:22:35;;;;;;;;;;;17.20;99.90;;;;;;5041461;28;19933;-80
2022/09/08 08:25:09;;;;;;;;;;;17.20;99.90;;;;;;5024429;28;19977;-81
2022/09/08 08:27:44;;;;;;;;;;;17.10;99.90;;;;;;5016061;28;19976;-82
2022/09/08 08:30:17;;;;;;;;;;;17.10;99.90;;;;;;5049141;28;20568;-83
2022/09/08 08:32:46;;;;;;;;;;;17.10;99.90;;;;;;5001852;28;20369;-76
2022/09/08 08:35:12;;;;;;;;;;;17.10;99.90;;;;;;5042164;28;19971;-80
2022/09/08 08:37:38;;;;;;;;;;;17.10;99.90;;;;;;5019569;28;20395;-79
2022/09/08 08:40:17;;;;;;;;;;;17.00;99.90;;;;;;4992662;28;20537;-80
2022/09/08 08:42:54;;;;;;;;;;;17.10;99.90;;;;;;5017666;28;19936;-81
2022/09/08 08:45:37;;;;;;;;;;;17.10;99.90;;;;;;5016321;28;19925;-79
2022/09/08 08:48:13;;;;;;;;;;;17.10;99.90;;;;;;5046685;28;19926;-80
2022/09/08 08:50:57;;;;;;;;;;;17.10;99.90;;;;;;5030341;28;20025;-81
2022/09/08 08:53:42;;;;;;;;;;;17.10;99.90;;;;;;5032107;28;19936;-81
2022/09/08 08:56:27;;;;;;;;;;;17.20;99.90;;;;;;5037174;28;19925;-83
2022/09/08 08:59:09;;;;;;;;;;;17.20;99.90;;;;;;5047344;28;19933;-79
2022/09/08 09:01:49;;;;;;;;;;;17.20;99.90;;;;;;5013103;28;19952;-80
2022/09/08 09:04:21;;;;;;;;;;;17.30;99.90;;;;;;5031549;28;19944;-82
2022/09/08 09:06:53;;;;;;;;;;;17.30;99.90;;;;;;5046467;28;19925;-80
2022/09/08 09:09:28;;;;;;;;;;;17.30;99.90;;;;;;5032232;28;19929;-83
2022/09/08 09:11:59;;;;;;;;;;;17.30;99.90;;;;;;5032333;28;20331;-81
2022/09/08 09:14:36;;;;;;;;;;;17.40;99.90;;;;;;5010947;28;20008;-80
2022/09/08 09:17:08;;;;;;;;;;;17.40;99.90;;;;;;5002884;28;19932;-81
2022/09/08 09:19:43;;;;;;;;;;;17.40;99.90;;;;;;5043230;28;20036;-82
2022/09/08 09:22:25;;;;;;;;;;;17.40;99.90;;;;;;5012545;28;19930;-84
2022/09/08 09:25:09;;;;;;;;;;;17.40;99.90;;;;;;4995803;28;19952;-84
2022/09/08 09:27:43;;;;;;;;;;;17.40;99.90;;;;;;5005255;28;19956;-80
2022/09/08 09:30:17;;;;;;;;;;;17.40;99.90;;;;;;5023862;28;19941;-82
2022/09/08 09:33:03;;;;;;;;;;;17.40;99.90;;;;;;5010292;28;20060;-82
2022/09/08 09:35:49;;;;;;;;;;;17.40;99.90;;;;;;5002892;28;19925;-84
2022/09/08 09:38:24;;;;;;;;;;;17.40;99.90;;;;;;4979591;28;19933;-88
2022/09/08 09:41:02;;;;;;;;;;;17.40;99.90;;;;;;5034343;28;19929;-83
2022/09/08 09:43:43;;;;;;;;;;;17.50;99.90;;;;;;5030457;28;20400;-84
2022/09/08 09:46:09;;;;;;;;;;;17.50;99.90;;;;;;5030335;28;19987;-84
2022/09/08 09:48:41;;;;;;;;;;;17.60;99.90;;;;;;5020071;28;19929;-83
2022/09/08 09:51:27;;;;;;;;;;;17.60;99.90;;;;;;5018241;28;19929;-85
2022/09/08 09:54:14;;;;;;;;;;;17.70;99.90;;;;;;5013943;28;19931;-85
2022/09/08 09:56:55;;;;;;;;;;;17.80;99.90;;;;;;5035768;28;19956;-85
2022/09/08 09:59:20;;;;;;;;;;;17.80;99.90;;;;;;5003088;28;19936;-81
2022/09/08 10:01:53;;;;;;;;;;;17.90;99.90;;;;;;5033504;28;19925;-83
2022/09/08 10:04:37;;;;;;;;;;;17.90;99.90;;;;;;5014331;28;19925;-84
2022/09/08 10:07:28;;;;;;;;;;;17.90;99.90;;;;;;5020139;28;20004;-86
2022/09/08 10:13:26;;;;;;;;;;;17.80;99.90;;;;;;5021975;28;19925;-84
2022/09/08 10:15:52;;;;;;;;;;;17.80;99.90;;;;;;5037069;28;20127;-83
2022/09/08 10:18:21;;;;;;;;;;;17.80;99.90;;;;;;5043379;28;20008;-86
2022/09/08 10:21:20;;;;;;;;;;;17.70;99.90;;;;;;5039948;28;20270;-85
2022/09/08 10:23:46;;;;;;;;;;;17.70;99.90;;;;;;4998376;28;19930;-84
2022/09/08 10:26:31;;;;;;;;;;;17.70;99.90;;;;;;4968757;28;19949;-84
2022/09/08 10:32:10;;;;;;;;;;;17.60;99.90;;;;;;5038369;28;19932;-85
2022/09/08 10:38:19;;;;;;;;;;;17.60;99.90;;;;;;5028080;28;19936;-83
2022/09/08 10:41:10;;;;;;;;;;;17.70;99.90;;;;;;5017549;28;19927;-91
2022/09/08 10:43:51;;;;;;;;;;;17.60;99.90;;;;;;5037339;28;20372;-87
2022/09/08 10:49:27;;;;;;;;;;;17.70;99.90;;;;;;5013846;28;19925;-89
2022/09/08 10:52:12;;;;;;;;;;;17.70;99.90;;;;;;5003509;28;19926;-87
2022/09/08 10:54:58;;;;;;;;;;;17.70;99.90;;;;;;5029871;28;20400;-88
2022/09/08 10:57:45;;;;;;;;;;;17.70;99.90;;;;;;5028637;28;19991;-90
2022/09/08 11:00:18;;;;;;;;;;;17.70;99.90;;;;;;5049716;28;20522;-85
2022/09/08 11:03:03;;;;;;;;;;;17.70;99.90;;;;;;5019201;28;19933;-88
2022/09/08 11:05:49;;;;;;;;;;;17.70;99.90;;;;;;5031168;28;20584;-92
2022/09/08 11:08:17;;;;;;;;;;;17.70;99.90;;;;;;5030145;28;20368;-85
2022/09/08 11:10:47;;;;;;;;;;;17.70;99.90;;;;;;5044452;28;19925;-84
2022/09/08 11:13:24;;;;;;;;;;;17.60;99.90;;;;;;5047810;28;20110;-84
2022/09/08 11:16:12;;;;;;;;;;;17.60;99.90;;;;;;5007360;28;19936;-92
2022/09/08 11:18:44;;;;;;;;;;;17.60;99.90;;;;;;5057733;28;19932;-87
2022/09/08 11:21:17;;;;;;;;;;;17.60;99.90;;;;;;5019400;28;20420;-94
2022/09/08 11:24:09;;;;;;;;;;;17.60;99.90;;;;;;4995250;28;19972;-82
2022/09/08 11:26:41;;;;;;;;;;;17.60;99.90;;;;;;4974744;28;19925;-84
2022/09/08 11:29:11;;;;;;;;;;;17.60;99.90;;;;;;5015526;28;19929;-82
2022/09/08 11:31:53;;;;;;;;;;;17.50;99.90;;;;;;5028309;28;19932;-85
2022/09/08 11:34:31;;;;;;;;;;;17.50;99.90;;;;;;5008801;28;19937;-81
2022/09/08 11:37:15;;;;;;;;;;;17.50;99.90;;;;;;5007394;28;20008;-80
2022/09/08 11:40:00;;;;;;;;;;;17.40;99.90;;;;;;5013579;28;19969;-81
2022/09/08 11:42:38;;;;;;;;;;;17.40;99.90;;;;;;5013979;28;19940;-81
2022/09/08 11:45:14;;;;;;;;;;;17.30;99.90;;;;;;5019876;28;19929;-83
2022/09/08 11:47:42;;;;;;;;;;;17.30;99.90;;;;;;5014069;28;19929;-81
2022/09/08 11:50:28;;;;;;;;;;;17.30;99.90;;;;;;5022301;28;20573;-83
2022/09/08 11:53:00;;;;;;;;;;;17.20;99.90;;;;;;5018873;28;19971;-80
2022/09/08 11:55:29;;;;;;;;;;;17.20;99.90;;;;;;5049902;28;19937;-82
2022/09/08 11:58:10;;;;;;;;;;;17.20;99.90;;;;;;5038957;28;19983;-82
2022/09/08 12:00:54;;;;;;;;;;;17.20;99.90;;;;;;5002096;28;20367;-85
2022/09/08 12:03:23;;;;;;;;;;;17.20;99.90;;;;;;5009801;28;19956;-80
2022/09/08 12:06:04;;;;;;;;;;;17.20;99.90;;;;;;5048748;28;19936;-81
2022/09/08 12:08:39;;;;;;;;;;;17.20;99.90;;;;;;5041456;28;19929;-82
2022/09/08 12:11:10;;;;;;;;;;;17.20;99.90;;;;;;5057694;28;19933;-81
2022/09/08 12:13:45;;;;;;;;;;;17.10;99.90;;;;;;4997749;28;20000;-91
2022/09/08 12:16:26;;;;;;;;;;;17.10;99.90;;;;;;5023611;28;19929;-80
2022/09/08 12:18:55;;;;;;;;;;;17.00;99.90;;;;;;4999755;28;20500;-78
2022/09/08 12:21:27;;;;;;;;;;;17.10;99.90;;;;;;5017021;28;19932;-78
2022/09/08 12:24:13;;;;;;;;;;;17.10;99.90;;;;;;5022157;28;19924;-81
2022/09/08 12:26:41;;;;;;;;;;;17.10;99.90;;;;;;5043238;28;19951;-78
2022/09/08 12:29:26;;;;;;;;;;;17.10;99.90;;;;;;5045215;28;19929;-79
2022/09/08 12:31:58;;;;;;;;;;;17.10;99.90;;;;;;5042550;28;19925;-78
2022/09/08 12:34:43;;;;;;;;;;;17.10;99.90;;;;;;5044068;28;19933;-78
2022/09/08 12:37:28;;;;;;;;;;;17.20;99.90;;;;;;5040378;28;19932;-79
2022/09/08 12:40:07;;;;;;;;;;;17.20;99.90;;;;;;5021354;28;19964;-79
2022/09/08 12:42:46;;;;;;;;;;;17.20;99.90;;;;;;5010520;28;19937;-80
2022/09/08 12:45:22;;;;;;;;;;;17.20;99.90;;;;;;5007141;28;20347;-79
2022/09/08 12:47:50;;;;;;;;;;;17.30;99.90;;;;;;5038699;28;19940;-79
2022/09/08 12:50:20;;;;;;;;;;;17.30;99.90;;;;;;5038139;28;20474;-79
2022/09/08 12:52:49;;;;;;;;;;;17.30;99.90;;;;;;5037062;28;20304;-82
2022/09/08 12:55:21;;;;;;;;;;;17.30;99.90;;;;;;5036658;28;20280;-79
2022/09/08 12:57:47;;;;;;;;;;;17.30;99.90;;;;;;5048928;28;19925;-81
2022/09/08 13:00:16;;;;;;;;;;;17.30;99.90;;;;;;5052730;28;21438;-81
2022/09/08 13:03:02;;;;;;;;;;;17.30;99.90;;;;;;4999839;28;19925;-80
2022/09/08 13:05:33;;;;;;;;;;;17.40;99.90;;;;;;5039220;28;20443;-81
2022/09/08 13:08:02;;;;;;;;;;;17.40;99.90;;;;;;5036031;28;19933;-81
2022/09/08 13:10:34;;;;;;;;;;;17.40;99.90;;;;;;5009580;28;20000;-80
2022/09/08 13:13:19;;;;;;;;;;;17.40;99.90;;;;;;5006892;28;19929;-82
2022/09/08 13:15:53;;;;;;;;;;;17.40;99.90;;;;;;5033633;28;19925;-82
2022/09/08 13:18:28;;;;;;;;;;;17.40;99.90;;;;;;5028962;28;19929;-85
2022/09/08 13:20:59;;;;;;;;;;;17.40;99.90;;;;;;5010772;28;19925;-83
2022/09/08 13:23:44;;;;;;;;;;;17.40;99.90;;;;;;5045155;28;20010;-83
2022/09/08 13:26:31;;;;;;;;;;;17.40;99.90;;;;;;5032357;28;19936;-82
2022/09/08 13:29:17;;;;;;;;;;;17.40;99.90;;;;;;5025575;28;19936;-83
2022/09/08 13:31:53;;;;;;;;;;;17.40;99.90;;;;;;5034674;28;19931;-83
2022/09/08 13:34:22;;;;;;;;;;;17.40;99.90;;;;;;5028313;28;20322;-83
2022/09/08 13:37:07;;;;;;;;;;;17.40;99.90;;;;;;5027682;28;20557;-87
2022/09/08 13:39:56;;;;;;;;;;;17.40;99.90;;;;;;5032551;28;20320;-89
2022/09/08 13:42:42;;;;;;;;;;;17.40;99.90;;;;;;5019048;28;19979;-86
2022/09/08 13:45:31;;;;;;;;;;;17.40;99.90;;;;;;5048855;28;19925;-86
2022/09/08 13:48:06;;;;;;;;;;;17.40;99.90;;;;;;5046099;28;19932;-87
2022/09/08 13:50:38;;;;;;;;;;;17.40;99.90;;;;;;5023258;28;20384;-84
2022/09/08 13:53:13;;;;;;;;;;;17.40;99.90;;;;;;5035568;28;19933;-87
2022/09/08 13:55:51;;;;;;;;;;;17.40;99.90;;;;;;5031874;28;19935;-82
2022/09/08 13:58:37;;;;;;;;;;;17.40;99.90;;;;;;5013787;28;19925;-89
2022/09/08 14:01:21;;;;;;;;;;;17.40;99.90;;;;;;5029541;28;20023;-86
2022/09/08 14:03:50;;;;;;;;;;;17.50;99.90;;;;;;5025508;28;19937;-83
2022/09/08 14:06:18;;;;;;;;;;;17.60;99.90;;;;;;5008743;28;19978;-83
2022/09/08 14:09:06;;;;;;;;;;;17.50;99.90;;;;;;5009203;28;19936;-82
2022/09/08 14:11:49;;;;;;;;;;;17.60;99.90;;;;;;5004440;28;19929;-85
2022/09/08 14:14:14;;;;;;;;;;;17.50;99.90;;;;;;5017928;28;20392;-85
2022/09/08 14:16:42;;;;;;;;;;;17.60;99.90;;;;;;5055588;28;19940;-84
2022/09/08 14:19:44;;;;;;;;;;;17.60;99.90;;;;;;5022211;28;19925;-84
2022/09/08 14:22:10;;;;;;;;;;;17.60;99.90;;;;;;4971592;28;20316;-83
2022/09/08 14:24:51;;;;;;;;;;;17.60;99.90;;;;;;5031634;28;19935;-84
2022/09/08 14:27:39;;;;;;;;;;;17.60;99.90;;;;;;5007317;28;19931;-84
2022/09/08 14:30:14;;;;;;;;;;;17.70;99.90;;;;;;5022925;28;19942;-87
2022/09/08 14:32:57;;;;;;;;;;;17.70;99.90;;;;;;4988845;28;20363;-84
2022/09/08 14:35:43;;;;;;;;;;;17.70;99.90;;;;;;5008256;28;19952;-86
2022/09/08 14:38:09;;;;;;;;;;;17.70;99.90;;;;;;5009524;28;19933;-86
2022/09/08 14:40:44;;;;;;;;;;;17.70;99.90;;;;;;5033571;28;19936;-84
2022/09/08 14:46:08;;;;;;;;;;;17.80;99.90;;;;;;5006480;28;20024;-85
2022/09/08 14:48:57;;;;;;;;;;;17.80;99.90;;;;;;4991645;28;19932;-85
2022/09/08 14:51:23;;;;;;;;;;;17.90;99.90;;;;;;4983498;28;20351;-81
2022/09/08 14:53:59;;;;;;;;;;;17.90;99.90;;;;;;5001220;28;19929;-88
2022/09/08 14:56:28;;;;;;;;;;;17.90;99.90;;;;;;4989408;28;20319;-84
2022/09/08 14:58:58;;;;;;;;;;;17.90;99.90;;;;;;5000114;28;20344;-86
2022/09/08 15:01:33;;;;;;;;;;;18.30;99.90;;;;;;5003040;28;19924;-81
2022/09/08 15:03:58;;;;;;;;;;;18.00;99.90;;;;;;4988667;28;20243;-84
2022/09/08 15:06:43;;;;;;;;;;;17.90;99.90;;;;;;5007839;28;20392;-82
2022/09/08 15:09:22;;;;;;;;;;;18.00;99.90;;;;;;5002005;28;20328;-85
2022/09/08 15:11:49;;;;;;;;;;;18.00;99.90;;;;;;5004492;28;19940;-85
2022/09/08 15:14:27;;;;;;;;;;;18.00;99.90;;;;;;4987001;28;20011;-82
2022/09/08 15:16:59;;;;;;;;;;;18.00;99.90;;;;;;4987136;28;19925;-83
2022/09/08 15:19:27;;;;;;;;;;;18.00;99.90;;;;;;4996791;28;19969;-81
2022/09/08 15:21:54;;;;;;;;;;;18.00;99.90;;;;;;4979862;28;19929;-83
2022/09/08 15:24:20;;;;;;;;;;;18.10;99.90;;;;;;4996986;28;19936;-83